sensor_id;sensor_type;location;lat;lon;timestamp;pressure;altitude;pressure_sealevel;temperature;humidity
51439;BME280;38816;51.142;-0.974;2023-04-06T00:01:20;100028.84;;;8.36;100.00
51439;BME280;38816;51.142;-0.974;2023-04-06T00:03:46;100020.38;;;8.39;100.00
51439;BME280;38816;51.142;-0.974;2023-04-06T00:06:11;100009.06;;;8.31;100.00
51439;BME280;38816;51.142;-0.974;2023-04-06T00:08:36;100021.97;;;8.35;100.00
51439;BME280;38816;51.142;-0.974;2023-04-06T00:11:02;100020.28;;;8.36;100.00
51439;BME280;38816;51.142;-0.974;2023-04-06T00:13:27;100007.47;;;8.36;100.00
51439;BME280;38816;51.142;-0.974;2023-04-06T00:15:52;100006.59;;;8.35;100.00
51439;BME280;38816;51.142;-0.974;2023-04-06T00:18:18;100005.00;;;8.38;100.00
51439;BME280;38816;51.142;-0.974;2023-04-06T00:20:44;100004.16;;;8.39;100.00
51439;BME280;38816;51.142;-0.974;2023-04-06T00:23:10;99993.72;;;8.31;100.00
51439;BME280;38816;51.142;-0.974;2023-04-06T00:25:35;100000.63;;;8.35;100.00
51439;BME280;38816;51.142;-0.974;2023-04-06T00:28:01;99994.66;;;8.34;100.00
51439;BME280;38816;51.142;-0.974;2023-04-06T00:30:26;99990.38;;;8.33;100.00
51439;BME280;38816;51.142;-0.974;2023-04-06T00:32:52;99993.72;;;8.32;100.00
51439;BME280;38816;51.142;-0.974;2023-04-06T00:35:17;99984.25;;;8.28;100.00
51439;BME280;38816;51.142;-0.974;2023-04-06T00:37:43;99981.88;;;8.36;100.00
51439;BME280;38816;51.142;-0.974;2023-04-06T00:40:08;99978.41;;;8.34;100.00
51439;BME280;38816;51.142;-0.974;2023-04-06T00:42:34;99971.63;;;8.36;100.00
51439;BME280;38816;51.142;-0.974;2023-04-06T00:45:01;99973.31;;;8.35;100.00
51439;BME280;38816;51.142;-0.974;2023-04-06T00:47:27;99963.91;;;8.34;100.00
51439;BME280;38816;51.142;-0.974;2023-04-06T00:49:53;99954.53;;;8.35;100.00
51439;BME280;38816;51.142;-0.974;2023-04-06T00:52:19;99962.28;;;8.36;100.00
51439;BME280;38816;51.142;-0.974;2023-04-06T00:54:44;99959.75;;;8.38;100.00
51439;BME280;38816;51.142;-0.974;2023-04-06T00:57:11;99953.78;;;8.38;100.00
51439;BME280;38816;51.142;-0.974;2023-04-06T00:59:37;99938.16;;;8.28;100.00
51439;BME280;38816;51.142;-0.974;2023-04-06T01:02:03;99960.63;;;8.39;100.00
51439;BME280;38816;51.142;-0.974;2023-04-06T01:04:28;99937.38;;;8.31;100.00
51439;BME280;38816;51.142;-0.974;2023-04-06T01:06:54;99941.91;;;8.43;100.00
51439;BME280;38816;51.142;-0.974;2023-04-06T01:09:19;99933.28;;;8.38;100.00
51439;BME280;38816;51.142;-0.974;2023-04-06T01:11:46;99923.03;;;8.38;100.00
51439;BME280;38816;51.142;-0.974;2023-04-06T01:14:11;99929.84;;;8.37;100.00
51439;BME280;38816;51.142;-0.974;2023-04-06T01:16:36;99928.16;;;8.38;100.00
51439;BME280;38816;51.142;-0.974;2023-04-06T01:19:09;99927.34;;;8.40;100.00
51439;BME280;38816;51.142;-0.974;2023-04-06T01:21:38;99918.72;;;8.36;100.00
51439;BME280;38816;51.142;-0.974;2023-04-06T01:24:05;99920.50;;;8.39;100.00
51439;BME280;38816;51.142;-0.974;2023-04-06T01:26:31;99923.06;;;8.39;100.00
51439;BME280;38816;51.142;-0.974;2023-04-06T01:28:57;99921.34;;;8.40;100.00
51439;BME280;38816;51.142;-0.974;2023-04-06T01:31:23;99916.16;;;8.36;100.00
51439;BME280;38816;51.142;-0.974;2023-04-06T01:33:48;99921.38;;;8.41;100.00
51439;BME280;38816;51.142;-0.974;2023-04-06T01:36:14;99907.56;;;8.34;100.00
51439;BME280;38816;51.142;-0.974;2023-04-06T01:38:40;99909.47;;;8.43;100.00
51439;BME280;38816;51.142;-0.974;2023-04-06T01:41:07;99904.28;;;8.39;100.00
51439;BME280;38816;51.142;-0.974;2023-04-06T01:43:32;99898.25;;;8.36;100.00
51439;BME280;38816;51.142;-0.974;2023-04-06T01:45:58;99896.63;;;8.42;100.00
51439;BME280;38816;51.142;-0.974;2023-04-06T01:48:23;99884.53;;;8.36;100.00
51439;BME280;38816;51.142;-0.974;2023-04-06T01:50:48;99895.81;;;8.43;100.00
51439;BME280;38816;51.142;-0.974;2023-04-06T01:53:14;99899.19;;;8.42;100.00
51439;BME280;38816;51.142;-0.974;2023-04-06T01:55:40;99890.69;;;8.43;100.00
51439;BME280;38816;51.142;-0.974;2023-04-06T01:58:06;99883.78;;;8.39;100.00
51439;BME280;38816;51.142;-0.974;2023-04-06T02:00:31;99892.41;;;8.44;100.00
51439;BME280;38816;51.142;-0.974;2023-04-06T02:02:56;99877.03;;;8.44;100.00
51439;BME280;38816;51.142;-0.974;2023-04-06T02:05:22;99871.94;;;8.44;100.00
51439;BME280;38816;51.142;-0.974;2023-04-06T02:07:47;99861.56;;;8.38;100.00
51439;BME280;38816;51.142;-0.974;2023-04-06T02:10:14;99872.75;;;8.43;100.00
51439;BME280;38816;51.142;-0.974;2023-04-06T02:12:40;99868.53;;;8.45;100.00
51439;BME280;38816;51.142;-0.974;2023-04-06T02:15:06;99870.25;;;8.46;100.00
51439;BME280;38816;51.142;-0.974;2023-04-06T02:17:31;99859.03;;;8.39;100.00
51439;BME280;38816;51.142;-0.974;2023-04-06T02:19:57;99868.53;;;8.45;100.00
51439;BME280;38816;51.142;-0.974;2023-04-06T02:22:23;99858.28;;;8.46;100.00
51439;BME280;38816;51.142;-0.974;2023-04-06T02:24:48;99836.00;;;8.41;100.00
51439;BME280;38816;51.142;-0.974;2023-04-06T02:27:14;99853.22;;;8.48;100.00
51439;BME280;38816;51.142;-0.974;2023-04-06T02:29:40;99844.59;;;8.43;100.00
51439;BME280;38816;51.142;-0.974;2023-04-06T02:32:05;99845.41;;;8.42;100.00
51439;BME280;38816;51.142;-0.974;2023-04-06T02:34:31;99849.78;;;8.47;100.00
51439;BME280;38816;51.142;-0.974;2023-04-06T02:36:56;99841.19;;;8.44;100.00
51439;BME280;38816;51.142;-0.974;2023-04-06T02:39:21;99839.47;;;8.43;100.00
51439;BME280;38816;51.142;-0.974;2023-04-06T02:41:47;99844.72;;;8.50;100.00
51439;BME280;38816;51.142;-0.974;2023-04-06T02:44:13;99839.59;;;8.50;100.00
51439;BME280;38816;51.142;-0.974;2023-04-06T02:46:38;99839.59;;;8.50;100.00
51439;BME280;38816;51.142;-0.974;2023-04-06T02:49:04;99826.69;;;8.44;100.00
51439;BME280;38816;51.142;-0.974;2023-04-06T02:51:29;99826.78;;;8.50;100.00
51439;BME280;38816;51.142;-0.974;2023-04-06T02:53:54;99829.38;;;8.52;100.00
51439;BME280;38816;51.142;-0.974;2023-04-06T02:56:20;99820.75;;;8.47;100.00
51439;BME280;38816;51.142;-0.974;2023-04-06T02:58:46;99825.97;;;8.53;100.00
51439;BME280;38816;51.142;-0.974;2023-04-06T03:01:12;99819.22;;;8.56;100.00
51439;BME280;38816;51.142;-0.974;2023-04-06T03:03:37;99802.03;;;8.51;100.00
51439;BME280;38816;51.142;-0.974;2023-04-06T03:06:03;99815.81;;;8.57;100.00
51439;BME280;38816;51.142;-0.974;2023-04-06T03:08:30;99812.41;;;8.57;100.00
51439;BME280;38816;51.142;-0.974;2023-04-06T03:10:55;99803.00;;;8.56;100.00
51439;BME280;38816;51.142;-0.974;2023-04-06T03:13:21;99801.25;;;8.55;100.00
51439;BME280;38816;51.142;-0.974;2023-04-06T03:15:46;99806.50;;;8.62;100.00
51439;BME280;38816;51.142;-0.974;2023-04-06T03:18:12;99795.41;;;8.62;100.00
51439;BME280;38816;51.142;-0.974;2023-04-06T03:20:37;99786.72;;;8.55;100.00
51439;BME280;38816;51.142;-0.974;2023-04-06T03:23:03;99788.56;;;8.62;100.00
51439;BME280;38816;51.142;-0.974;2023-04-06T03:25:28;99791.16;;;8.64;100.00
51439;BME280;38816;51.142;-0.974;2023-04-06T03:27:55;99779.13;;;8.60;100.00
51439;BME280;38816;51.142;-0.974;2023-04-06T03:30:21;99782.66;;;8.65;100.00
51439;BME280;38816;51.142;-0.974;2023-04-06T03:32:46;99784.38;;;8.66;100.00
51439;BME280;38816;51.142;-0.974;2023-04-06T03:35:11;99780.19;;;8.71;100.00
51439;BME280;38816;51.142;-0.974;2023-04-06T03:37:37;99762.97;;;8.64;100.00
51439;BME280;38816;51.142;-0.974;2023-04-06T03:40:03;99761.31;;;8.66;100.00
51439;BME280;38816;51.142;-0.974;2023-04-06T03:42:29;99768.25;;;8.73;100.00
51439;BME280;38816;51.142;-0.974;2023-04-06T03:44:54;99769.13;;;8.74;100.00
51439;BME280;38816;51.142;-0.974;2023-04-06T03:47:20;99773.38;;;8.73;100.00
51439;BME280;38816;51.142;-0.974;2023-04-06T03:49:45;99778.53;;;8.75;100.00
51439;BME280;38816;51.142;-0.974;2023-04-06T03:52:11;99752.78;;;8.69;100.00
51439;BME280;38816;51.142;-0.974;2023-04-06T03:54:36;99758.84;;;8.72;100.00
51439;BME280;38816;51.142;-0.974;2023-04-06T03:57:02;99754.56;;;8.73;100.00
51439;BME280;38816;51.142;-0.974;2023-04-06T03:59:27;99756.41;;;8.80;100.00
51439;BME280;38816;51.142;-0.974;2023-04-06T04:04:28;99752.91;;;8.76;100.00
51439;BME280;38816;51.142;-0.974;2023-04-06T04:06:56;99741.81;;;8.76;100.00
51439;BME280;38816;51.142;-0.974;2023-04-06T04:09:22;99741.81;;;8.77;100.00
51439;BME280;38816;51.142;-0.974;2023-04-06T04:11:47;99744.38;;;8.77;100.00
51439;BME280;38816;51.142;-0.974;2023-04-06T04:14:12;99755.56;;;8.82;100.00
51439;BME280;38816;51.142;-0.974;2023-04-06T04:16:38;99753.84;;;8.81;100.00
51439;BME280;38816;51.142;-0.974;2023-04-06T04:19:04;99753.91;;;8.83;100.00
51439;BME280;38816;51.142;-0.974;2023-04-06T04:21:30;99741.00;;;8.78;100.00
51439;BME280;38816;51.142;-0.974;2023-04-06T04:23:56;99753.06;;;8.84;100.00
51439;BME280;38816;51.142;-0.974;2023-04-06T04:26:22;99738.41;;;8.77;100.00
51439;BME280;38816;51.142;-0.974;2023-04-06T04:28:47;99742.75;;;8.82;100.00
51439;BME280;38816;51.142;-0.974;2023-04-06T04:31:12;99745.38;;;8.84;100.00
51439;BME280;38816;51.142;-0.974;2023-04-06T04:33:38;99740.22;;;8.84;100.00
51439;BME280;38816;51.142;-0.974;2023-04-06T04:36:03;99735.03;;;8.79;100.00
51439;BME280;38816;51.142;-0.974;2023-04-06T04:38:29;99740.19;;;8.82;100.00
51439;BME280;38816;51.142;-0.974;2023-04-06T04:40:54;99735.13;;;8.87;100.00
51439;BME280;38816;51.142;-0.974;2023-04-06T04:43:20;99728.28;;;8.86;100.00
51439;BME280;38816;51.142;-0.974;2023-04-06T04:45:45;99706.78;;;8.76;100.00
51439;BME280;38816;51.142;-0.974;2023-04-06T04:48:10;99731.69;;;8.85;100.00
51439;BME280;38816;51.142;-0.974;2023-04-06T04:50:36;99725.66;;;8.80;100.00
51439;BME280;38816;51.142;-0.974;2023-04-06T04:53:01;99726.56;;;8.85;100.00
51439;BME280;38816;51.142;-0.974;2023-04-06T04:55:27;99727.44;;;8.85;100.00
51439;BME280;38816;51.142;-0.974;2023-04-06T04:57:54;99713.78;;;8.86;100.00
51439;BME280;38816;51.142;-0.974;2023-04-06T05:00:19;99697.50;;;8.83;100.00
51439;BME280;38816;51.142;-0.974;2023-04-06T05:02:46;99698.44;;;8.90;100.00
51439;BME280;38816;51.142;-0.974;2023-04-06T05:05:11;99713.81;;;8.88;100.00
51439;BME280;38816;51.142;-0.974;2023-04-06T05:07:36;99718.94;;;8.90;100.00
51439;BME280;38816;51.142;-0.974;2023-04-06T05:10:02;99713.03;;;8.94;100.00
51439;BME280;38816;51.142;-0.974;2023-04-06T05:12:27;99710.47;;;8.94;100.00
51439;BME280;38816;51.142;-0.974;2023-04-06T05:14:53;99711.22;;;8.86;100.00
51439;BME280;38816;51.142;-0.974;2023-04-06T05:17:19;99713.03;;;8.92;100.00
51439;BME280;38816;51.142;-0.974;2023-04-06T05:19:44;99727.63;;;8.98;100.00
51439;BME280;38816;51.142;-0.974;2023-04-06T05:22:10;99711.31;;;8.94;100.00
51439;BME280;38816;51.142;-0.974;2023-04-06T05:24:36;99718.16;;;8.95;100.00
51439;BME280;38816;51.142;-0.974;2023-04-06T05:27:01;99723.28;;;8.95;100.00
51439;BME280;38816;51.142;-0.974;2023-04-06T05:29:27;99714.75;;;8.93;100.00
51439;BME280;38816;51.142;-0.974;2023-04-06T05:31:52;99712.97;;;8.87;100.00
51439;BME280;38816;51.142;-0.974;2023-04-06T05:34:17;99719.00;;;8.93;100.00
51439;BME280;38816;51.142;-0.974;2023-04-06T05:36:43;99718.09;;;8.91;100.00
51439;BME280;38816;51.142;-0.974;2023-04-06T05:39:08;99710.34;;;8.84;100.00
51439;BME280;38816;51.142;-0.974;2023-04-06T05:41:34;99721.50;;;8.90;100.00
51439;BME280;38816;51.142;-0.974;2023-04-06T05:43:59;99724.94;;;8.88;100.00
51439;BME280;38816;51.142;-0.974;2023-04-06T05:46:25;99738.59;;;8.87;100.00
51439;BME280;38816;51.142;-0.974;2023-04-06T05:48:50;99732.56;;;8.85;100.00
51439;BME280;38816;51.142;-0.974;2023-04-06T05:51:15;99732.63;;;8.88;100.00
51439;BME280;38816;51.142;-0.974;2023-04-06T05:53:41;99740.31;;;8.90;100.00
51439;BME280;38816;51.142;-0.974;2023-04-06T05:56:06;99744.66;;;8.96;100.00
51439;BME280;38816;51.142;-0.974;2023-04-06T05:58:32;99735.97;;;8.84;100.00
51439;BME280;38816;51.142;-0.974;2023-04-06T06:01:01;99736.06;;;8.91;100.00
51439;BME280;38816;51.142;-0.974;2023-04-06T06:03:26;99742.16;;;9.00;100.00
51439;BME280;38816;51.142;-0.974;2023-04-06T06:05:51;99731.06;;;9.00;100.00
51439;BME280;38816;51.142;-0.974;2023-04-06T06:08:17;99728.44;;;8.95;100.00
51439;BME280;38816;51.142;-0.974;2023-04-06T06:10:42;99728.47;;;8.97;100.00
51439;BME280;38816;51.142;-0.974;2023-04-06T06:13:08;99723.22;;;8.89;100.00
51439;BME280;38816;51.142;-0.974;2023-04-06T06:15:34;99721.31;;;8.77;100.00
51439;BME280;38816;51.142;-0.974;2023-04-06T06:17:59;99723.09;;;8.80;100.00
51439;BME280;38816;51.142;-0.974;2023-04-06T06:20:25;99735.97;;;8.83;100.00
51439;BME280;38816;51.142;-0.974;2023-04-06T06:22:51;99748.00;;;8.88;100.00
51439;BME280;38816;51.142;-0.974;2023-04-06T06:25:17;99740.25;;;8.85;100.00
51439;BME280;38816;51.142;-0.974;2023-04-06T06:27:42;99745.44;;;8.88;100.00
51439;BME280;38816;51.142;-0.974;2023-04-06T06:30:08;99747.94;;;8.85;100.00
51439;BME280;38816;51.142;-0.974;2023-04-06T06:32:33;99751.47;;;8.94;100.00
51439;BME280;38816;51.142;-0.974;2023-04-06T06:34:59;99756.59;;;8.94;100.00
51439;BME280;38816;51.142;-0.974;2023-04-06T06:37:24;99746.31;;;8.91;100.00
51439;BME280;38816;51.142;-0.974;2023-04-06T06:39:50;99761.78;;;8.97;100.00
51439;BME280;38816;51.142;-0.974;2023-04-06T06:42:15;99755.88;;;9.02;100.00
51439;BME280;38816;51.142;-0.974;2023-04-06T06:44:40;99764.44;;;9.01;100.00
51439;BME280;38816;51.142;-0.974;2023-04-06T06:47:06;99754.00;;;8.91;100.00
51439;BME280;38816;51.142;-0.974;2023-04-06T06:49:31;99753.00;;;8.82;100.00
51439;BME280;38816;51.142;-0.974;2023-04-06T06:51:56;99756.53;;;8.87;100.00
51439;BME280;38816;51.142;-0.974;2023-04-06T06:54:22;99754.75;;;8.83;100.00
51439;BME280;38816;51.142;-0.974;2023-04-06T06:56:47;99764.22;;;8.89;100.00
51439;BME280;38816;51.142;-0.974;2023-04-06T06:59:12;99766.06;;;8.96;100.00
51439;BME280;38816;51.142;-0.974;2023-04-06T07:01:38;99762.59;;;8.96;100.00
51439;BME280;38816;51.142;-0.974;2023-04-06T07:04:03;99766.94;;;9.00;100.00
51439;BME280;38816;51.142;-0.974;2023-04-06T07:06:29;99774.63;;;8.98;100.00
51439;BME280;38816;51.142;-0.974;2023-04-06T07:08:54;99780.59;;;8.99;100.00
51439;BME280;38816;51.142;-0.974;2023-04-06T07:11:20;99782.44;;;9.06;100.00
51439;BME280;38816;51.142;-0.974;2023-04-06T07:13:46;99788.34;;;9.02;100.00
51439;BME280;38816;51.142;-0.974;2023-04-06T07:16:11;99790.03;;;9.00;100.00
51439;BME280;38816;51.142;-0.974;2023-04-06T07:18:43;99776.59;;;9.15;100.00
51439;BME280;38816;51.142;-0.974;2023-04-06T07:21:08;99785.88;;;9.08;100.00
51439;BME280;38816;51.142;-0.974;2023-04-06T07:23:33;99782.56;;;9.15;100.00
51439;BME280;38816;51.142;-0.974;2023-04-06T07:25:59;99783.56;;;9.26;100.00
51439;BME280;38816;51.142;-0.974;2023-04-06T07:28:24;99789.75;;;9.41;100.00
51439;BME280;38816;51.142;-0.974;2023-04-06T07:30:50;99789.13;;;9.57;100.00
51439;BME280;38816;51.142;-0.974;2023-04-06T07:33:15;99785.81;;;9.66;100.00
51439;BME280;38816;51.142;-0.974;2023-04-06T07:35:41;99781.50;;;9.60;100.00
51439;BME280;38816;51.142;-0.974;2023-04-06T07:38:06;99798.72;;;9.70;100.00
51439;BME280;38816;51.142;-0.974;2023-04-06T07:40:31;99784.91;;;9.62;100.00
51439;BME280;38816;51.142;-0.974;2023-04-06T07:42:57;99771.16;;;9.57;100.00
51439;BME280;38816;51.142;-0.974;2023-04-06T07:45:23;99777.16;;;9.59;100.00
51439;BME280;38816;51.142;-0.974;2023-04-06T07:47:48;99772.81;;;9.52;100.00
51439;BME280;38816;51.142;-0.974;2023-04-06T07:50:15;99783.09;;;9.52;100.00
51439;BME280;38816;51.142;-0.974;2023-04-06T07:52:40;99774.28;;;9.33;100.00
51439;BME280;38816;51.142;-0.974;2023-04-06T07:55:06;99775.00;;;9.24;100.00
51439;BME280;38816;51.142;-0.974;2023-04-06T07:57:31;99784.44;;;9.27;100.00
51439;BME280;38816;51.142;-0.974;2023-04-06T07:59:57;99778.38;;;9.20;100.00
51439;BME280;38816;51.142;-0.974;2023-04-06T08:02:22;99785.22;;;9.20;100.00
51439;BME280;38816;51.142;-0.974;2023-04-06T08:04:48;99787.78;;;9.21;100.00
51439;BME280;38816;51.142;-0.974;2023-04-06T08:07:13;99788.63;;;9.19;100.00
51439;BME280;38816;51.142;-0.974;2023-04-06T08:09:38;99792.06;;;9.21;100.00
51439;BME280;38816;51.142;-0.974;2023-04-06T08:12:04;99786.28;;;9.35;100.00
51439;BME280;38816;51.142;-0.974;2023-04-06T08:14:29;99779.53;;;9.42;100.00
51439;BME280;38816;51.142;-0.974;2023-04-06T08:16:55;99791.59;;;9.48;100.00
51439;BME280;38816;51.142;-0.974;2023-04-06T08:19:20;99778.75;;;9.46;100.00
51439;BME280;38816;51.142;-0.974;2023-04-06T08:21:46;99785.72;;;9.58;100.00
51439;BME280;38816;51.142;-0.974;2023-04-06T08:24:12;99775.41;;;9.53;100.00
51439;BME280;38816;51.142;-0.974;2023-04-06T08:26:38;99795.00;;;9.50;100.00
51439;BME280;38816;51.142;-0.974;2023-04-06T08:29:03;99798.44;;;9.49;100.00
51439;BME280;38816;51.142;-0.974;2023-04-06T08:31:29;99785.66;;;9.53;100.00
51439;BME280;38816;51.142;-0.974;2023-04-06T08:33:56;99809.84;;;9.71;100.00
51439;BME280;38816;51.142;-0.974;2023-04-06T08:36:21;99801.41;;;9.79;100.00
51439;BME280;38816;51.142;-0.974;2023-04-06T08:38:48;99803.28;;;9.94;100.00
51439;BME280;38816;51.142;-0.974;2023-04-06T08:41:15;99788.88;;;10.07;100.00
51439;BME280;38816;51.142;-0.974;2023-04-06T08:43:47;99805.19;;;10.12;100.00
51439;BME280;38816;51.142;-0.974;2023-04-06T08:46:14;99800.16;;;10.20;100.00
51439;BME280;38816;51.142;-0.974;2023-04-06T08:48:41;99793.44;;;10.29;100.00
51439;BME280;38816;51.142;-0.974;2023-04-06T08:51:08;99804.75;;;10.47;100.00
51439;BME280;38816;51.142;-0.974;2023-04-06T08:53:34;99806.50;;;10.51;100.00
51439;BME280;38816;51.142;-0.974;2023-04-06T08:56:00;99799.56;;;10.44;100.00
51439;BME280;38816;51.142;-0.974;2023-04-06T08:58:28;99812.50;;;10.50;100.00
51439;BME280;38816;51.142;-0.974;2023-04-06T09:00:54;99806.66;;;10.69;100.00
51439;BME280;38816;51.142;-0.974;2023-04-06T09:03:21;99817.97;;;10.88;100.00
51439;BME280;38816;51.142;-0.974;2023-04-06T09:05:47;99815.41;;;10.86;100.00
51439;BME280;38816;51.142;-0.974;2023-04-06T09:08:13;99822.28;;;10.94;100.00
51439;BME280;38816;51.142;-0.974;2023-04-06T09:10:42;99828.47;;;11.14;100.00
51439;BME280;38816;51.142;-0.974;2023-04-06T09:13:08;99818.19;;;11.15;100.00
51439;BME280;38816;51.142;-0.974;2023-04-06T09:15:34;99820.78;;;11.19;100.00
51439;BME280;38816;51.142;-0.974;2023-04-06T09:18:00;99824.28;;;11.28;100.00
51439;BME280;38816;51.142;-0.974;2023-04-06T09:20:26;99826.06;;;11.35;100.00
51439;BME280;38816;51.142;-0.974;2023-04-06T09:22:53;99833.78;;;11.35;100.00
51439;BME280;38816;51.142;-0.974;2023-04-06T09:25:21;99835.53;;;11.41;100.00
51439;BME280;38816;51.142;-0.974;2023-04-06T09:27:48;99844.22;;;11.60;100.00
51439;BME280;38816;51.142;-0.974;2023-04-06T09:30:15;99833.06;;;11.64;100.00
51439;BME280;38816;51.142;-0.974;2023-04-06T09:32:52;99828.06;;;11.82;100.00
51439;BME280;38816;51.142;-0.974;2023-04-06T09:35:19;99830.63;;;11.88;100.00
51439;BME280;38816;51.142;-0.974;2023-04-06T09:37:46;99836.69;;;11.97;100.00
51439;BME280;38816;51.142;-0.974;2023-04-06T09:40:12;99828.19;;;12.16;100.00
51439;BME280;38816;51.142;-0.974;2023-04-06T09:42:40;99826.50;;;12.21;100.00
51439;BME280;38816;51.142;-0.974;2023-04-06T09:45:06;99838.53;;;12.22;100.00
51439;BME280;38816;51.142;-0.974;2023-04-06T09:47:32;99835.91;;;12.14;100.00
51439;BME280;38816;51.142;-0.974;2023-04-06T09:49:59;99823.00;;;12.10;100.00
51439;BME280;38816;51.142;-0.974;2023-04-06T09:55:05;99817.00;;;12.11;100.00
51439;BME280;38816;51.142;-0.974;2023-04-06T09:57:42;99834.22;;;12.21;100.00
51439;BME280;38816;51.142;-0.974;2023-04-06T10:00:13;99828.19;;;12.13;100.00
51439;BME280;38816;51.142;-0.974;2023-04-06T10:05:43;99832.53;;;12.37;100.00
51439;BME280;38816;51.142;-0.974;2023-04-06T10:08:12;99839.50;;;12.65;100.00
51439;BME280;38816;51.142;-0.974;2023-04-06T10:10:38;99841.19;;;12.59;100.00
51439;BME280;38816;51.142;-0.974;2023-04-06T10:13:04;99842.88;;;12.55;100.00
51439;BME280;38816;51.142;-0.974;2023-04-06T10:15:30;99847.16;;;12.41;100.00
51439;BME280;38816;51.142;-0.974;2023-04-06T10:17:57;99845.47;;;12.60;100.00
51439;BME280;38816;51.142;-0.974;2023-04-06T10:20:46;99852.41;;;12.90;100.00
51439;BME280;38816;51.142;-0.974;2023-04-06T10:25:57;99852.38;;;12.76;95.52
51439;BME280;38816;51.142;-0.974;2023-04-06T10:28:23;99851.44;;;12.42;97.44
51439;BME280;38816;51.142;-0.974;2023-04-06T10:30:56;99847.97;;;12.22;99.65
51439;BME280;38816;51.142;-0.974;2023-04-06T10:33:23;99843.72;;;12.34;98.79
51439;BME280;38816;51.142;-0.974;2023-04-06T10:35:48;99864.38;;;12.53;93.81
51439;BME280;38816;51.142;-0.974;2023-04-06T10:38:13;99867.81;;;12.50;94.89
51439;BME280;38816;51.142;-0.974;2023-04-06T10:40:41;99866.94;;;12.44;97.00
51439;BME280;38816;51.142;-0.974;2023-04-06T10:43:20;99862.69;;;12.58;96.98
51439;BME280;38816;51.142;-0.974;2023-04-06T10:45:55;99855.81;;;12.69;94.65
51439;BME280;38816;51.142;-0.974;2023-04-06T10:48:21;99854.13;;;13.08;91.06
51439;BME280;38816;51.142;-0.974;2023-04-06T10:50:48;99855.88;;;13.38;90.45
51439;BME280;38816;51.142;-0.974;2023-04-06T10:53:46;99854.97;;;13.65;90.05
51439;BME280;38816;51.142;-0.974;2023-04-06T10:56:17;99881.59;;;13.82;90.84
51439;BME280;38816;51.142;-0.974;2023-04-06T10:58:46;99875.56;;;13.86;81.75
51439;BME280;38816;51.142;-0.974;2023-04-06T11:01:14;99881.66;;;13.56;81.77
51439;BME280;38816;51.142;-0.974;2023-04-06T11:03:52;99860.94;;;13.79;85.25
51439;BME280;38816;51.142;-0.974;2023-04-06T11:06:22;99866.00;;;14.13;84.82
51439;BME280;38816;51.142;-0.974;2023-04-06T11:08:49;99884.91;;;14.23;77.16
51439;BME280;38816;51.142;-0.974;2023-04-06T11:11:16;99871.13;;;14.22;78.43
51439;BME280;38816;51.142;-0.974;2023-04-06T11:13:59;99866.78;;;14.27;72.98
51439;BME280;38816;51.142;-0.974;2023-04-06T11:16:26;99845.34;;;14.04;73.58
51439;BME280;38816;51.142;-0.974;2023-04-06T11:19:00;99856.56;;;14.06;71.42
51439;BME280;38816;51.142;-0.974;2023-04-06T11:21:45;99852.97;;;14.31;67.14
51439;BME280;38816;51.142;-0.974;2023-04-06T11:29:09;99870.84;;;14.76;65.14
51439;BME280;38816;51.142;-0.974;2023-04-06T11:31:42;99879.38;;;14.91;63.53
51439;BME280;38816;51.142;-0.974;2023-04-06T11:34:11;99881.19;;;14.80;62.49
51439;BME280;38816;51.142;-0.974;2023-04-06T11:36:39;99885.56;;;14.71;65.40
51439;BME280;38816;51.142;-0.974;2023-04-06T11:39:06;99885.66;;;14.52;67.57
51439;BME280;38816;51.142;-0.974;2023-04-06T11:41:32;99868.25;;;14.79;65.55
51439;BME280;38816;51.142;-0.974;2023-04-06T11:44:00;99879.41;;;14.88;64.10
51439;BME280;38816;51.142;-0.974;2023-04-06T11:46:26;99885.59;;;14.66;68.27
51439;BME280;38816;51.142;-0.974;2023-04-06T11:48:51;99879.59;;;14.56;67.84
51439;BME280;38816;51.142;-0.974;2023-04-06T11:51:23;99879.78;;;14.12;68.76
51439;BME280;38816;51.142;-0.974;2023-04-06T11:53:52;99868.66;;;13.85;72.52
51439;BME280;38816;51.142;-0.974;2023-04-06T11:56:30;99863.56;;;13.67;70.46
51439;BME280;38816;51.142;-0.974;2023-04-06T11:58:56;99881.66;;;13.61;68.11
51439;BME280;38816;51.142;-0.974;2023-04-06T12:01:23;99884.28;;;13.38;69.23
51439;BME280;38816;51.142;-0.974;2023-04-06T12:03:49;99895.41;;;12.94;80.44
51439;BME280;38816;51.142;-0.974;2023-04-06T12:06:15;99907.75;;;11.65;95.29
51439;BME280;38816;51.142;-0.974;2023-04-06T12:08:41;99901.38;;;10.32;100.00
51439;BME280;38816;51.142;-0.974;2023-04-06T12:11:06;99908.22;;;9.68;100.00
51439;BME280;38816;51.142;-0.974;2023-04-06T12:13:32;99920.41;;;9.28;100.00
51439;BME280;38816;51.142;-0.974;2023-04-06T12:15:57;99912.44;;;9.13;100.00
51439;BME280;38816;51.142;-0.974;2023-04-06T12:18:23;99899.78;;;9.22;100.00
51439;BME280;38816;51.142;-0.974;2023-04-06T12:20:48;99893.94;;;9.29;100.00
51439;BME280;38816;51.142;-0.974;2023-04-06T12:23:13;99909.47;;;9.38;100.00
51439;BME280;38816;51.142;-0.974;2023-04-06T12:25:40;99882.75;;;9.27;100.00
51439;BME280;38816;51.142;-0.974;2023-04-06T12:28:06;99898.34;;;9.39;100.00
51439;BME280;38816;51.142;-0.974;2023-04-06T12:30:32;99899.47;;;9.58;100.00
51439;BME280;38816;51.142;-0.974;2023-04-06T12:32:57;99902.50;;;9.89;100.00
51439;BME280;38816;51.142;-0.974;2023-04-06T12:35:23;99900.31;;;10.18;100.00
51439;BME280;38816;51.142;-0.974;2023-04-06T12:37:48;99907.53;;;10.47;100.00
51439;BME280;38816;51.142;-0.974;2023-04-06T12:40:14;99890.56;;;10.62;100.00
51439;BME280;38816;51.142;-0.974;2023-04-06T12:42:40;99901.16;;;10.92;100.00
51439;BME280;38816;51.142;-0.974;2023-04-06T12:45:08;99879.88;;;11.08;100.00
51439;BME280;38816;51.142;-0.974;2023-04-06T12:47:34;99894.59;;;11.26;100.00
51439;BME280;38816;51.142;-0.974;2023-04-06T12:50:01;99890.34;;;11.31;100.00
51439;BME280;38816;51.142;-0.974;2023-04-06T12:52:26;99890.41;;;11.41;100.00
51439;BME280;38816;51.142;-0.974;2023-04-06T12:54:52;99891.47;;;11.68;100.00
51439;BME280;38816;51.142;-0.974;2023-04-06T12:57:17;99878.84;;;12.15;100.00
51439;BME280;38816;51.142;-0.974;2023-04-06T12:59:43;99871.28;;;12.72;100.00